createdAt,value
2023-04-05T00:00:44.357Z,0.70
2023-04-05T00:01:50.142Z,0.80
2023-04-05T00:02:53.060Z,0.60
2023-04-05T00:03:57.717Z,0.67
2023-04-05T00:05:01.034Z,0.90
2023-04-05T00:06:05.302Z,0.60
2023-04-05T00:07:08.283Z,0.63
2023-04-05T00:08:13.626Z,0.70
2023-04-05T00:09:15.505Z,0.67
2023-04-05T00:10:17.802Z,0.70
2023-04-05T00:11:19.625Z,0.90
2023-04-05T00:12:21.624Z,0.90
2023-04-05T00:13:23.773Z,0.80
2023-04-05T00:14:25.906Z,0.50
2023-04-05T00:15:28.302Z,0.80
2023-04-05T00:16:30.854Z,0.70
2023-04-05T00:17:33.460Z,0.73
2023-04-05T00:18:38.755Z,0.60
2023-04-05T00:19:40.904Z,0.67
2023-04-05T00:20:42.938Z,0.50
2023-04-05T00:21:45.106Z,1.00
2023-04-05T00:22:46.951Z,0.70
2023-04-05T00:23:55.402Z,0.67
2023-04-05T00:24:57.198Z,0.60
2023-04-05T00:25:58.972Z,0.70
2023-04-05T00:27:01.291Z,0.80
2023-04-05T00:28:05.883Z,0.60
2023-04-05T00:29:07.781Z,0.80
2023-04-05T00:30:09.977Z,0.53
2023-04-05T00:31:12.212Z,0.60
2023-04-05T00:32:14.264Z,0.70
2023-04-05T00:33:17.438Z,0.67
2023-04-05T00:34:19.363Z,0.70
2023-04-05T00:35:21.369Z,0.90
2023-04-05T00:36:23.555Z,0.40
2023-04-05T00:37:25.572Z,0.80
2023-04-05T00:38:27.547Z,0.50
2023-04-05T00:39:29.497Z,0.70
2023-04-05T00:40:31.497Z,0.70
2023-04-05T00:41:33.357Z,0.60
2023-04-05T00:42:35.253Z,0.80
2023-04-05T00:43:37.346Z,0.70
2023-04-05T00:44:39.214Z,0.70
2023-04-05T00:45:42.377Z,0.70
2023-04-05T00:46:44.207Z,0.73
2023-04-05T00:47:46.613Z,0.80
2023-04-05T00:48:49.057Z,0.90
2023-04-05T00:49:51.297Z,0.70
2023-04-05T00:50:53.592Z,0.60
2023-04-05T00:51:57.767Z,0.60
2023-04-05T00:53:00.040Z,0.70
2023-04-05T00:54:03.035Z,0.80
2023-04-05T00:55:07.362Z,0.87
2023-04-05T00:56:10.351Z,0.73
2023-04-05T00:57:13.020Z,0.80
2023-04-05T00:58:21.504Z,0.80
2023-04-05T00:59:23.652Z,0.73
2023-04-05T01:00:27.305Z,0.83
2023-04-05T01:01:29.391Z,0.70
2023-04-05T01:02:34.502Z,0.80
2023-04-05T01:03:41.196Z,0.57
2023-04-05T01:04:51.146Z,0.60
2023-04-05T01:06:10.166Z,0.70
2023-04-05T01:07:28.959Z,0.80
2023-04-05T01:08:55.954Z,0.60
2023-04-05T01:10:00.448Z,0.80
2023-04-05T01:11:06.965Z,0.63
2023-04-05T01:12:17.260Z,0.57
2023-04-05T01:13:19.304Z,0.93
2023-04-05T01:14:21.122Z,0.70
2023-04-05T01:15:23.013Z,0.50
2023-04-05T01:16:25.081Z,0.77
2023-04-05T01:17:30.821Z,0.60
2023-04-05T01:18:36.426Z,0.80
2023-04-05T01:19:42.313Z,0.70
2023-04-05T01:21:20.914Z,0.60
2023-04-05T01:23:06.769Z,0.70
2023-04-05T01:24:39.185Z,0.80
2023-04-05T01:26:21.386Z,0.60
2023-04-05T01:27:50.596Z,0.67
2023-04-05T01:29:25.165Z,0.60
2023-04-05T01:30:58.175Z,0.70
2023-04-05T01:32:20.402Z,0.70
2023-04-05T01:33:40.646Z,0.70
2023-04-05T01:34:56.403Z,0.60
2023-04-05T01:36:48.614Z,0.50
2023-04-05T01:37:59.709Z,0.53
2023-04-05T01:39:05.211Z,0.67
2023-04-05T01:40:08.714Z,0.60
2023-04-05T01:41:11.238Z,0.80
2023-04-05T01:42:14.001Z,0.50
2023-04-05T01:43:17.978Z,0.60
2023-04-05T01:44:20.122Z,0.90
2023-04-05T01:45:22.006Z,0.60
2023-04-05T01:46:24.677Z,0.60
2023-04-05T01:47:26.622Z,0.40
2023-04-05T01:48:28.766Z,0.77
2023-04-05T01:49:31.008Z,0.70
2023-04-05T01:50:32.956Z,0.70
2023-04-05T01:51:34.890Z,0.50
2023-04-05T01:52:36.776Z,0.60
2023-04-05T01:53:38.602Z,0.60
2023-04-05T01:54:40.496Z,0.60
2023-04-05T01:55:42.266Z,0.83
2023-04-05T01:56:46.047Z,0.50
2023-04-05T01:57:50.294Z,0.60
2023-04-05T01:58:52.141Z,0.70
2023-04-05T01:59:54.211Z,0.93
2023-04-05T02:00:56.929Z,0.77
2023-04-05T02:01:58.772Z,0.70
2023-04-05T02:03:01.870Z,0.77
2023-04-05T02:04:03.769Z,0.80
2023-04-05T02:05:06.438Z,0.40
2023-04-05T02:06:08.662Z,0.73
2023-04-05T02:07:10.972Z,0.60
2023-04-05T02:08:14.257Z,0.57
2023-04-05T02:09:16.462Z,0.70
2023-04-05T02:10:19.990Z,0.80
2023-04-05T02:11:22.125Z,0.70
2023-04-05T02:12:24.007Z,0.70
2023-04-05T02:13:26.195Z,0.80
2023-04-05T02:14:28.428Z,0.70
2023-04-05T02:15:30.269Z,0.60
2023-04-05T02:16:35.080Z,0.50
2023-04-05T02:17:40.041Z,0.80
2023-04-05T02:18:43.637Z,0.70
2023-04-05T02:19:46.232Z,0.60
2023-04-05T02:20:52.163Z,0.50
2023-04-05T02:21:54.570Z,0.80
2023-04-05T02:22:58.448Z,0.70
2023-04-05T02:24:00.435Z,0.60
2023-04-05T02:25:03.742Z,0.70
2023-04-05T02:26:05.981Z,0.73
2023-04-05T02:27:07.803Z,0.80
2023-04-05T02:28:11.401Z,0.60
2023-04-05T02:29:13.896Z,0.50
2023-04-05T02:30:15.785Z,0.70
2023-04-05T02:31:17.965Z,0.70
2023-04-05T02:32:19.817Z,0.70
2023-04-05T02:33:24.250Z,0.63
2023-04-05T02:34:27.844Z,0.73
2023-04-05T02:35:29.665Z,0.80
2023-04-05T02:36:31.647Z,0.70
2023-04-05T02:37:33.655Z,0.63
2023-04-05T02:38:36.250Z,0.63
2023-04-05T02:39:38.183Z,0.73
2023-04-05T02:40:41.875Z,0.50
2023-04-05T02:41:44.242Z,0.67
2023-04-05T02:42:46.262Z,0.80
2023-04-05T02:43:48.283Z,0.50
2023-04-05T02:44:50.594Z,0.80
2023-04-05T02:45:52.484Z,0.60
2023-04-05T02:46:54.395Z,0.73
2023-04-05T02:47:56.306Z,0.50
2023-04-05T02:48:58.210Z,0.90
2023-04-05T02:50:00.496Z,0.63
2023-04-05T02:51:02.379Z,0.47
2023-04-05T02:52:04.501Z,0.70
2023-04-05T02:53:06.430Z,0.70
2023-04-05T02:54:08.618Z,0.90
2023-04-05T02:55:10.457Z,0.73
2023-04-05T02:56:13.846Z,0.67
2023-04-05T02:57:16.569Z,0.70
2023-04-05T02:58:19.087Z,0.90
2023-04-05T02:59:21.286Z,0.80
2023-04-05T03:00:23.541Z,0.60
2023-04-05T03:01:25.832Z,0.73
2023-04-05T03:02:28.147Z,0.87
2023-04-05T03:03:30.108Z,0.60
2023-04-05T03:04:34.457Z,0.60
2023-04-05T03:05:36.842Z,0.80
2023-04-05T03:06:39.402Z,0.60
2023-04-05T03:07:42.599Z,0.80
2023-04-05T03:08:44.493Z,0.80
2023-04-05T03:09:46.892Z,0.50
2023-04-05T03:10:51.861Z,0.70
2023-04-05T03:11:53.975Z,0.70
2023-04-05T03:12:56.048Z,0.60
2023-04-05T03:13:58.188Z,0.80
2023-04-05T03:15:00.174Z,0.60
2023-04-05T03:16:03.417Z,0.70
2023-04-05T03:17:06.324Z,0.77
2023-04-05T03:18:09.268Z,0.63
2023-04-05T03:19:12.527Z,0.80
2023-04-05T03:20:14.367Z,0.90
2023-04-05T03:21:18.606Z,0.67
2023-04-05T03:22:21.787Z,0.70
2023-04-05T03:23:29.734Z,0.70
2023-04-05T03:24:32.390Z,0.63
2023-04-05T03:25:37.062Z,0.70
2023-04-05T03:26:38.978Z,0.77
2023-04-05T03:27:40.829Z,0.80
2023-04-05T03:28:45.344Z,0.70
2023-04-05T03:29:47.215Z,0.60
2023-04-05T03:30:49.115Z,0.80
2023-04-05T03:31:52.165Z,0.70
2023-04-05T03:32:54.239Z,0.73
2023-04-05T03:33:56.325Z,0.80
2023-04-05T03:34:58.224Z,0.80
2023-04-05T03:36:00.411Z,0.53
2023-04-05T03:37:02.633Z,0.67
2023-04-05T03:38:05.852Z,0.83
2023-04-05T03:39:12.537Z,0.90
2023-04-05T03:40:14.527Z,0.80
2023-04-05T03:41:27.919Z,0.70
2023-04-05T03:42:29.924Z,0.63
2023-04-05T03:43:33.490Z,0.73
2023-04-05T03:44:35.257Z,0.80
2023-04-05T03:45:37.234Z,0.80
2023-04-05T03:46:39.533Z,0.80
2023-04-05T03:47:50.574Z,0.57
2023-04-05T03:48:52.859Z,0.60
2023-04-05T03:49:56.854Z,0.60
2023-04-05T03:50:59.062Z,0.60
2023-04-05T03:52:00.885Z,0.80
2023-04-05T03:53:03.403Z,0.60
2023-04-05T03:54:05.631Z,0.70
2023-04-05T03:55:08.243Z,0.80
2023-04-05T03:56:10.519Z,0.70
2023-04-05T03:57:12.419Z,0.73
2023-04-05T03:58:14.429Z,0.77
2023-04-05T03:59:16.545Z,0.80
2023-04-05T04:00:18.974Z,0.80
2023-04-05T04:01:21.565Z,0.90
2023-04-05T04:02:23.387Z,0.70
2023-04-05T04:03:26.132Z,0.60
2023-04-05T04:04:28.337Z,0.60
2023-04-05T04:05:31.292Z,0.50
2023-04-05T04:06:33.356Z,0.70
2023-04-05T04:07:35.300Z,0.70
2023-04-05T04:08:37.566Z,0.60
2023-04-05T04:09:39.356Z,0.60
2023-04-05T04:10:41.459Z,0.77
2023-04-05T04:11:43.302Z,0.70
2023-04-05T04:12:46.419Z,0.83
2023-04-05T04:13:48.537Z,0.80
2023-04-05T04:14:50.507Z,0.77
2023-04-05T04:15:52.828Z,0.80
2023-04-05T04:16:54.581Z,0.60
2023-04-05T04:17:56.775Z,0.80
2023-04-05T04:18:58.804Z,0.80
2023-04-05T04:20:01.065Z,0.90
2023-04-05T04:21:07.404Z,0.60
2023-04-05T04:22:10.407Z,0.73
2023-04-05T04:23:14.416Z,0.80
2023-04-05T04:24:19.042Z,0.63
2023-04-05T04:25:21.961Z,0.70
2023-04-05T04:26:28.899Z,1.07
2023-04-05T04:27:32.408Z,0.70
2023-04-05T04:28:39.688Z,0.80
2023-04-05T04:29:46.982Z,0.60
2023-04-05T04:30:49.282Z,0.77
2023-04-05T04:31:51.480Z,0.80
2023-04-05T04:32:54.715Z,0.60
2023-04-05T04:33:56.529Z,0.70
2023-04-05T04:34:59.406Z,0.70
2023-04-05T04:36:09.407Z,0.70
2023-04-05T04:37:18.444Z,0.70
2023-04-05T04:38:20.576Z,0.60
2023-04-05T04:39:26.814Z,0.50
2023-04-05T04:40:39.470Z,0.90
2023-04-05T04:41:47.131Z,0.73
2023-04-05T04:42:49.933Z,0.80
2023-04-05T04:43:54.941Z,0.60
2023-04-05T04:44:58.093Z,0.67
2023-04-05T04:46:00.213Z,0.80
2023-04-05T04:47:02.078Z,0.90
2023-04-05T04:48:05.136Z,1.00
2023-04-05T04:49:07.131Z,0.70
2023-04-05T04:50:10.611Z,0.80
2023-04-05T04:51:12.566Z,0.70
2023-04-05T04:52:14.429Z,0.80
2023-04-05T04:53:20.148Z,0.80
2023-04-05T04:54:23.354Z,0.70
2023-04-05T04:55:26.412Z,1.00
2023-04-05T04:56:28.493Z,0.80
2023-04-05T04:57:30.606Z,0.80
2023-04-05T04:58:32.470Z,0.97
2023-04-05T04:59:34.572Z,0.80
2023-04-05T05:00:41.793Z,0.80
2023-04-05T05:01:46.920Z,0.70
2023-04-05T05:02:51.303Z,1.10
2023-04-05T05:03:53.612Z,0.70
2023-04-05T05:04:55.447Z,0.90
2023-04-05T05:05:57.480Z,0.70
2023-04-05T05:06:59.366Z,0.70
2023-04-05T05:08:01.828Z,0.90
2023-04-05T05:09:03.966Z,0.80
2023-04-05T05:10:07.722Z,0.73
2023-04-05T05:11:10.776Z,1.03
2023-04-05T05:12:12.620Z,0.80
2023-04-05T05:13:14.402Z,0.83
2023-04-05T05:14:16.576Z,0.90
2023-04-05T05:15:19.779Z,0.77
2023-04-05T05:16:23.476Z,0.77
2023-04-05T05:17:26.671Z,0.80
2023-04-05T05:18:28.601Z,0.70
2023-04-05T05:19:31.784Z,0.80
2023-04-05T05:20:33.543Z,0.70
2023-04-05T05:21:36.810Z,1.17
2023-04-05T05:22:39.849Z,0.60
2023-04-05T05:23:41.761Z,0.77
2023-04-05T05:24:45.435Z,0.90
2023-04-05T05:25:48.078Z,0.90
2023-04-05T05:26:50.983Z,0.90
2023-04-05T05:27:52.920Z,0.80
2023-04-05T05:28:54.773Z,1.00
2023-04-05T05:29:56.925Z,0.90
2023-04-05T05:30:58.832Z,0.63
2023-04-05T05:32:00.805Z,0.83
2023-04-05T05:33:02.876Z,1.00
2023-04-05T05:34:04.927Z,0.80
2023-04-05T05:35:08.349Z,0.73
2023-04-05T05:36:10.198Z,0.87
2023-04-05T05:37:13.198Z,1.00
2023-04-05T05:38:15.062Z,0.90
2023-04-05T05:39:16.911Z,0.80
2023-04-05T05:40:19.139Z,1.07
2023-04-05T05:41:23.966Z,0.90
2023-04-05T05:42:27.366Z,1.10
2023-04-05T05:43:29.319Z,0.90
2023-04-05T05:44:31.846Z,1.00
2023-04-05T05:45:34.566Z,0.80
2023-04-05T05:46:36.574Z,1.07
2023-04-05T05:47:38.413Z,1.00
2023-04-05T05:48:42.145Z,1.10
2023-04-05T05:49:43.968Z,1.00
2023-04-05T05:50:48.959Z,1.00
2023-04-05T05:51:52.566Z,1.20
2023-04-05T05:52:54.940Z,1.00
2023-04-05T05:53:56.717Z,1.20
2023-04-05T05:54:58.969Z,1.20
2023-04-05T05:56:01.295Z,1.33
2023-04-05T05:57:03.581Z,1.00
2023-04-05T05:58:05.327Z,1.03
2023-04-05T05:59:07.468Z,1.17
2023-04-05T06:00:10.582Z,1.30
2023-04-05T06:01:12.665Z,1.17
2023-04-05T06:02:15.043Z,1.03
2023-04-05T06:03:17.244Z,1.27
2023-04-05T06:04:21.881Z,1.20
2023-04-05T06:05:23.839Z,1.40
2023-04-05T06:06:26.925Z,1.33
2023-04-05T06:07:28.922Z,1.03
2023-04-05T06:08:30.708Z,1.37
2023-04-05T06:09:35.293Z,1.63
2023-04-05T06:10:38.299Z,1.33
2023-04-05T06:11:53.103Z,1.40
2023-04-05T06:12:57.612Z,1.40
2023-04-05T06:13:59.437Z,1.20
2023-04-05T06:15:02.231Z,1.30
2023-04-05T06:16:04.459Z,1.37
2023-04-05T06:17:07.903Z,1.30
2023-04-05T06:18:10.919Z,1.50
2023-04-05T06:19:12.737Z,1.20
2023-04-05T06:20:16.794Z,1.10
2023-04-05T06:21:18.886Z,1.17
2023-04-05T06:22:21.422Z,1.37
2023-04-05T06:23:23.253Z,1.10
2023-04-05T06:24:26.394Z,1.43
2023-04-05T06:25:28.575Z,1.60
2023-04-05T06:26:31.605Z,1.53
2023-04-05T06:27:33.720Z,1.53
2023-04-05T06:28:35.771Z,1.40
2023-04-05T06:29:37.701Z,1.27
2023-04-05T06:30:39.675Z,1.20
2023-04-05T06:31:42.702Z,1.30
2023-04-05T06:32:44.888Z,1.70
2023-04-05T06:33:48.186Z,1.40
2023-04-05T06:34:50.092Z,1.50
2023-04-05T06:35:52.378Z,1.50
2023-04-05T06:36:55.862Z,1.50
2023-04-05T06:37:57.689Z,1.40
2023-04-05T06:38:59.690Z,1.37
2023-04-05T06:40:01.569Z,1.40
2023-04-05T06:41:04.799Z,1.40
2023-04-05T06:42:06.624Z,1.30
2023-04-05T06:43:13.086Z,1.30
2023-04-05T06:44:14.995Z,1.50
2023-04-05T06:45:19.092Z,1.17
2023-04-05T06:46:21.270Z,1.27
2023-04-05T06:47:23.274Z,1.50
2023-04-05T06:48:25.455Z,1.30
2023-04-05T06:49:28.480Z,1.47
2023-04-05T06:50:31.221Z,1.40
2023-04-05T06:51:33.156Z,1.47
2023-04-05T06:52:35.725Z,1.60
2023-04-05T06:53:38.725Z,1.20
2023-04-05T06:54:40.562Z,1.90
2023-04-05T06:55:48.957Z,1.13
2023-04-05T06:56:53.219Z,1.53
2023-04-05T06:57:55.109Z,1.50
2023-04-05T06:58:59.498Z,1.40
2023-04-05T07:00:01.499Z,1.30
2023-04-05T07:01:03.616Z,1.57
2023-04-05T07:02:06.804Z,1.60
2023-04-05T07:03:09.082Z,1.60
2023-04-05T07:04:12.968Z,1.40
2023-04-05T07:05:15.193Z,1.40
2023-04-05T07:06:17.040Z,1.50
2023-04-05T07:07:19.108Z,1.50
2023-04-05T07:08:21.972Z,1.40
2023-04-05T07:09:25.587Z,1.13
2023-04-05T07:10:29.038Z,1.60
2023-04-05T07:11:33.032Z,1.37
2023-04-05T07:12:35.236Z,1.40
2023-04-05T07:13:37.476Z,1.60
2023-04-05T07:14:39.527Z,1.47
2023-04-05T07:15:41.751Z,1.70
2023-04-05T07:16:43.823Z,1.50
2023-04-05T07:17:47.521Z,1.43
2023-04-05T07:18:49.949Z,1.33
2023-04-05T07:19:51.897Z,1.40
2023-04-05T07:21:00.459Z,1.40
2023-04-05T07:22:02.439Z,1.23
2023-04-05T07:23:06.183Z,1.10
2023-04-05T07:24:08.252Z,1.40
2023-04-05T07:25:10.853Z,1.13
2023-04-05T07:26:12.945Z,1.50
2023-04-05T07:27:16.114Z,1.30
2023-04-05T07:28:17.966Z,1.70
2023-04-05T07:29:19.777Z,1.13
2023-04-05T07:30:22.038Z,1.10
2023-04-05T07:31:24.252Z,1.10
2023-04-05T07:32:26.257Z,1.07
2023-04-05T07:33:28.289Z,1.23
2023-04-05T07:34:30.616Z,1.40
2023-04-05T07:35:32.734Z,1.50
2023-04-05T07:36:37.007Z,1.20
2023-04-05T07:37:39.244Z,1.50
2023-04-05T07:38:41.826Z,1.40
2023-04-05T07:39:43.673Z,1.27
2023-04-05T07:40:45.475Z,1.07
2023-04-05T07:41:47.339Z,1.00
2023-04-05T07:42:49.156Z,1.23
2023-04-05T07:43:51.160Z,1.10
2023-04-05T07:44:53.082Z,1.23
2023-04-05T07:46:03.507Z,1.10
2023-04-05T07:47:05.725Z,1.40
2023-04-05T07:48:07.788Z,1.20
2023-04-05T07:49:09.705Z,1.30
2023-04-05T07:50:14.922Z,1.20
2023-04-05T07:51:17.127Z,1.20
2023-04-05T07:52:19.460Z,0.90
2023-04-05T07:53:21.555Z,1.17
2023-04-05T07:54:24.956Z,1.30
2023-04-05T07:55:29.859Z,1.17
2023-04-05T07:56:32.478Z,1.20
2023-04-05T07:57:34.383Z,1.50
2023-04-05T07:58:41.326Z,1.30
2023-04-05T07:59:43.347Z,1.27
2023-04-05T08:00:46.231Z,1.40
2023-04-05T08:01:49.565Z,1.37
2023-04-05T08:02:51.811Z,1.20
2023-04-05T08:03:57.768Z,1.20
2023-04-05T08:04:59.717Z,1.30
2023-04-05T08:06:15.146Z,1.37
2023-04-05T08:07:17.143Z,1.23
2023-04-05T08:08:19.148Z,1.03
2023-04-05T08:09:21.291Z,1.20
2023-04-05T08:10:23.133Z,1.30
2023-04-05T08:11:26.465Z,1.20
2023-04-05T08:12:32.169Z,1.37
2023-04-05T08:13:34.479Z,1.10
2023-04-05T08:14:36.306Z,1.30
2023-04-05T08:15:38.226Z,1.00
2023-04-05T08:16:40.403Z,1.37
2023-04-05T08:17:43.663Z,1.27
2023-04-05T08:18:45.862Z,1.17
2023-04-05T08:19:47.705Z,1.40
2023-04-05T08:20:55.234Z,1.20
2023-04-05T08:21:57.263Z,1.30
2023-04-05T08:22:59.077Z,1.20
2023-04-05T08:24:01.090Z,0.90
2023-04-05T08:25:05.308Z,1.10
2023-04-05T08:26:07.895Z,1.30
2023-04-05T08:27:09.836Z,1.23
2023-04-05T08:28:12.860Z,1.10
2023-04-05T08:29:17.216Z,1.60
2023-04-05T08:30:19.977Z,1.03
2023-04-05T08:31:22.317Z,1.10
2023-04-05T08:32:24.271Z,1.17
2023-04-05T08:33:26.566Z,1.00
2023-04-05T08:34:28.440Z,1.30
2023-04-05T08:35:31.149Z,1.00
2023-04-05T08:36:32.991Z,1.03
2023-04-05T08:37:35.984Z,1.17
2023-04-05T08:38:38.011Z,1.30
2023-04-05T08:39:40.022Z,1.27
2023-04-05T08:40:48.094Z,1.40
2023-04-05T08:42:17.446Z,1.00
2023-04-05T08:43:40.631Z,0.90
2023-04-05T08:44:45.802Z,1.10
2023-04-05T08:45:51.378Z,1.20
2023-04-05T08:46:56.371Z,1.20
2023-04-05T08:47:59.021Z,1.10
2023-04-05T08:49:11.132Z,1.10
2023-04-05T08:50:13.707Z,1.00
2023-04-05T08:51:23.934Z,0.90
2023-04-05T08:52:26.296Z,1.00
2023-04-05T08:53:28.501Z,1.03
2023-04-05T08:54:30.714Z,1.10
2023-04-05T08:55:33.020Z,1.03
2023-04-05T08:56:36.683Z,0.97
2023-04-05T08:57:44.357Z,1.20
2023-04-05T08:58:57.814Z,1.20
2023-04-05T09:00:01.722Z,1.20
2023-04-05T09:01:07.604Z,1.00
2023-04-05T09:02:18.841Z,1.00
2023-04-05T09:03:31.626Z,0.70
2023-04-05T09:04:44.953Z,1.00
2023-04-05T09:05:51.406Z,0.93
2023-04-05T09:06:59.381Z,1.10
2023-04-05T09:08:02.330Z,0.83
2023-04-05T09:09:08.513Z,1.00
2023-04-05T09:10:13.634Z,1.20
2023-04-05T09:11:17.105Z,0.93
2023-04-05T09:12:22.701Z,1.00
2023-04-05T09:13:24.572Z,1.37
2023-04-05T09:14:29.080Z,0.80
2023-04-05T09:15:35.493Z,1.10
2023-04-05T09:16:42.842Z,1.20
2023-04-05T09:17:47.392Z,1.10
2023-04-05T09:18:49.678Z,1.20
2023-04-05T09:19:51.576Z,1.37
2023-04-05T09:21:03.766Z,1.40
2023-04-05T09:22:08.106Z,1.37
2023-04-05T09:23:10.997Z,1.30
2023-04-05T09:24:13.907Z,1.20
2023-04-05T09:25:54.709Z,1.00
2023-04-05T09:27:15.560Z,1.10
2023-04-05T09:28:19.569Z,1.20
2023-04-05T09:29:31.224Z,1.00
2023-04-05T09:30:35.866Z,0.90
2023-04-05T09:31:38.822Z,1.20
2023-04-05T09:32:47.244Z,1.03
2023-04-05T09:33:49.460Z,1.10
2023-04-05T09:34:54.422Z,1.30
2023-04-05T09:35:56.614Z,0.90
2023-04-05T09:36:59.705Z,1.10
2023-04-05T09:38:05.088Z,0.93
2023-04-05T09:39:09.305Z,1.13
2023-04-05T09:40:14.518Z,1.00
2023-04-05T09:41:16.631Z,1.07
2023-04-05T09:42:23.238Z,0.97
2023-04-05T09:43:42.463Z,0.80
2023-04-05T09:45:02.820Z,1.20
2023-04-05T09:46:05.336Z,0.90
2023-04-05T09:47:18.366Z,0.90
2023-04-05T09:48:20.386Z,1.10
2023-04-05T09:49:34.638Z,1.20
2023-04-05T09:50:37.301Z,0.83
2023-04-05T09:51:39.492Z,1.02
2023-04-05T09:52:42.520Z,1.10
2023-04-05T09:54:04.803Z,0.97
2023-04-05T09:55:07.598Z,0.77
2023-04-05T09:56:13.707Z,1.10
2023-04-05T09:57:18.049Z,1.03
2023-04-05T09:58:21.943Z,1.10
2023-04-05T09:59:23.923Z,0.90
2023-04-05T10:00:26.231Z,1.30
2023-04-05T10:01:32.233Z,1.17
2023-04-05T10:02:39.708Z,0.83
2023-04-05T10:03:49.637Z,1.23
2023-04-05T10:04:52.676Z,1.00
2023-04-05T10:05:57.911Z,0.90
2023-04-05T10:07:00.245Z,1.13
2023-04-05T10:08:02.695Z,1.20
2023-04-05T10:09:06.639Z,1.07
2023-04-05T10:10:16.424Z,0.83
2023-04-05T10:11:23.570Z,1.23
2023-04-05T10:12:27.527Z,1.10
2023-04-05T10:13:30.485Z,1.10
2023-04-05T10:14:32.333Z,1.27
2023-04-05T10:15:35.816Z,1.13
2023-04-05T10:16:47.842Z,1.17
2023-04-05T10:18:00.959Z,0.90
2023-04-05T10:19:10.297Z,1.20
2023-04-05T10:20:21.648Z,1.10
2023-04-05T10:21:29.987Z,1.00
2023-04-05T10:23:30.642Z,1.20
2023-04-05T10:24:52.016Z,1.20
2023-04-05T10:25:54.107Z,1.60
2023-04-05T10:27:29.231Z,1.70
2023-04-05T10:28:36.573Z,1.63
2023-04-05T10:30:05.033Z,1.80
2023-04-05T10:31:37.121Z,1.37
2023-04-05T10:33:14.855Z,1.53
2023-04-05T10:34:43.295Z,1.60
2023-04-05T10:36:32.005Z,1.80
2023-04-05T10:38:19.352Z,1.40
2023-04-05T10:39:44.749Z,1.00
2023-04-05T10:40:53.832Z,1.20
2023-04-05T10:42:13.985Z,1.73
2023-04-05T10:43:23.202Z,2.10
2023-04-05T10:44:26.618Z,1.77
2023-04-05T10:45:29.550Z,1.77
2023-04-05T10:46:35.335Z,1.80
2023-04-05T10:47:45.476Z,2.20
2023-04-05T10:49:04.473Z,2.10
2023-04-05T10:50:14.515Z,2.00
2023-04-05T10:51:16.785Z,1.87
2023-04-05T10:52:19.586Z,1.90
2023-04-05T10:53:23.437Z,2.07
2023-04-05T10:54:26.132Z,2.00
2023-04-05T10:55:29.177Z,2.03
2023-04-05T10:56:32.335Z,2.60
2023-04-05T10:57:35.515Z,2.40
2023-04-05T10:58:40.562Z,2.10
2023-04-05T10:59:46.417Z,2.80
2023-04-05T11:00:50.957Z,2.37
2023-04-05T11:01:55.099Z,2.43
2023-04-05T11:02:58.680Z,2.40
2023-04-05T11:04:12.847Z,2.40
2023-04-05T11:05:35.636Z,2.30
2023-04-05T11:06:37.558Z,1.87
2023-04-05T11:07:50.159Z,1.70
2023-04-05T11:09:09.101Z,1.87
2023-04-05T11:10:19.135Z,1.87
2023-04-05T11:11:24.538Z,1.83
2023-04-05T11:12:54.744Z,1.63
2023-04-05T11:13:58.816Z,1.87
2023-04-05T11:15:27.371Z,1.60
2023-04-05T11:16:40.320Z,1.60
2023-04-05T11:17:42.304Z,1.40
2023-04-05T11:18:52.398Z,1.30
2023-04-05T11:20:05.884Z,1.47
2023-04-05T11:21:08.788Z,1.40
2023-04-05T11:22:13.061Z,1.87
2023-04-05T11:23:19.049Z,1.57
2023-04-05T11:24:21.037Z,1.55
2023-04-05T11:25:24.859Z,1.80
2023-04-05T11:26:41.284Z,2.00
2023-04-05T11:28:01.580Z,1.80
2023-04-05T11:29:03.611Z,1.38
2023-04-05T11:30:07.677Z,1.50
2023-04-05T11:31:15.479Z,1.33
2023-04-05T11:32:18.596Z,1.27
2023-04-05T11:34:10.355Z,1.20
2023-04-05T11:35:23.391Z,1.37
2023-04-05T11:36:44.428Z,1.30
2023-04-05T11:38:01.173Z,1.50
2023-04-05T11:39:23.871Z,1.40
2023-04-05T11:40:38.279Z,1.40
2023-04-05T11:41:40.401Z,1.33
2023-04-05T11:42:42.869Z,1.27
2023-04-05T11:43:47.457Z,1.20
2023-04-05T11:44:52.753Z,1.17
2023-04-05T11:45:54.882Z,1.40
2023-04-05T11:46:57.304Z,1.00
2023-04-05T11:48:08.084Z,1.30
2023-04-05T11:49:10.159Z,1.30
2023-04-05T11:50:13.475Z,1.50
2023-04-05T11:51:16.748Z,1.73
2023-04-05T11:52:22.874Z,1.80
2023-04-05T11:53:25.403Z,1.83
2023-04-05T11:54:33.962Z,1.80
2023-04-05T11:55:37.415Z,1.67
2023-04-05T11:56:39.235Z,1.43
2023-04-05T11:57:41.525Z,1.70
2023-04-05T11:58:43.481Z,1.70
2023-04-05T11:59:45.562Z,1.60
2023-04-05T12:01:07.786Z,1.50
2023-04-05T12:02:10.055Z,1.50
2023-04-05T12:03:18.252Z,1.57
2023-04-05T12:04:20.129Z,1.70
2023-04-05T12:05:23.522Z,1.60
2023-04-05T12:06:26.688Z,1.30
2023-04-05T12:07:32.600Z,1.30
2023-04-05T12:08:42.577Z,1.27
2023-04-05T12:10:16.102Z,1.57
2023-04-05T12:11:25.092Z,1.63
2023-04-05T12:12:26.995Z,1.33
2023-04-05T12:13:33.724Z,1.20
2023-04-05T12:14:35.732Z,1.30
2023-04-05T12:15:41.119Z,1.40
2023-04-05T12:16:50.285Z,1.10
2023-04-05T12:17:55.298Z,1.03
2023-04-05T12:19:00.147Z,1.70
2023-04-05T12:20:02.367Z,1.30
2023-04-05T12:21:08.172Z,1.50
2023-04-05T12:22:10.678Z,1.50
2023-04-05T12:23:13.119Z,1.47
2023-04-05T12:24:15.342Z,1.40
2023-04-05T12:25:18.789Z,1.40
2023-04-05T12:26:22.246Z,1.30
2023-04-05T12:27:25.281Z,1.70
2023-04-05T12:28:56.585Z,1.57
2023-04-05T12:30:27.868Z,1.90
2023-04-05T12:31:45.701Z,1.50
2023-04-05T12:32:53.582Z,1.58
2023-04-05T12:33:59.770Z,1.50
2023-04-05T12:35:01.613Z,1.73
2023-04-05T12:36:08.926Z,1.60
2023-04-05T12:37:11.301Z,1.47
2023-04-05T12:38:16.200Z,1.30
2023-04-05T12:39:18.532Z,1.40
2023-04-05T12:40:22.997Z,1.20
2023-04-05T12:41:32.115Z,1.23
2023-04-05T12:42:36.129Z,1.30
2023-04-05T12:43:42.646Z,1.20
2023-04-05T12:44:44.573Z,1.10
2023-04-05T12:45:50.618Z,1.20
2023-04-05T12:47:05.323Z,1.37
2023-04-05T12:48:15.165Z,1.50
2023-04-05T12:49:19.004Z,1.30
2023-04-05T12:50:30.521Z,1.30
2023-04-05T12:51:33.434Z,1.50
2023-04-05T12:52:35.493Z,1.77
2023-04-05T12:53:47.611Z,1.40
2023-04-05T12:54:55.763Z,1.50
2023-04-05T12:55:58.818Z,1.40
2023-04-05T12:57:04.660Z,1.70
2023-04-05T12:58:08.349Z,1.60
2023-04-05T12:59:11.004Z,1.70
2023-04-05T13:00:13.927Z,1.80
2023-04-05T13:01:15.722Z,1.50
2023-04-05T13:02:18.601Z,1.60
2023-04-05T13:03:21.729Z,1.83
2023-04-05T13:04:25.794Z,1.40
2023-04-05T13:05:30.323Z,1.60
2023-04-05T13:06:32.927Z,2.10
2023-04-05T13:07:35.182Z,2.20
2023-04-05T13:08:37.129Z,2.27
2023-04-05T13:09:38.974Z,1.80
2023-04-05T13:10:41.336Z,2.20
2023-04-05T13:11:43.305Z,2.03
2023-04-05T13:12:46.004Z,2.20
2023-04-05T13:13:47.803Z,2.30
2023-04-05T13:14:50.326Z,1.53
2023-04-05T13:15:52.595Z,1.90
2023-04-05T13:16:54.522Z,2.00
2023-04-05T13:17:56.521Z,2.10
2023-04-05T13:18:58.364Z,1.97
2023-04-05T13:20:00.298Z,1.70
2023-04-05T13:21:07.899Z,1.80
2023-04-05T13:22:09.918Z,1.67
2023-04-05T13:23:12.986Z,1.70
2023-04-05T13:24:14.981Z,1.80
2023-04-05T13:25:17.468Z,1.77
2023-04-05T13:26:19.331Z,1.80
2023-04-05T13:27:24.389Z,1.70
2023-04-05T13:28:27.566Z,1.90
2023-04-05T13:29:29.382Z,1.63
2023-04-05T13:30:32.176Z,1.60
2023-04-05T13:31:34.147Z,1.90
2023-04-05T13:32:36.954Z,1.93
2023-04-05T13:33:38.827Z,2.10
2023-04-05T13:34:40.713Z,1.90
2023-04-05T13:35:42.940Z,2.10
2023-04-05T13:36:45.092Z,2.37
2023-04-05T13:37:46.996Z,1.77
2023-04-05T13:38:48.925Z,1.90
2023-04-05T13:39:51.066Z,1.83
2023-04-05T13:40:54.022Z,2.20
2023-04-05T13:41:57.396Z,2.03
2023-04-05T13:42:59.399Z,2.20
2023-04-05T13:44:02.873Z,1.80
2023-04-05T13:45:06.797Z,1.90
2023-04-05T13:46:08.937Z,1.70
2023-04-05T13:47:11.054Z,1.93
2023-04-05T13:48:13.003Z,1.70
2023-04-05T13:49:15.743Z,1.80
2023-04-05T13:50:17.736Z,1.43
2023-04-05T13:51:19.904Z,1.50
2023-04-05T13:52:22.278Z,1.50
2023-04-05T13:53:24.937Z,1.53
2023-04-05T13:54:27.881Z,1.75
2023-04-05T13:55:29.718Z,1.70
2023-04-05T13:56:31.587Z,1.77
2023-04-05T13:57:35.013Z,1.57
2023-04-05T13:58:36.885Z,1.40
2023-04-05T13:59:38.744Z,1.67
2023-04-05T14:00:41.316Z,2.00
2023-04-05T14:01:43.819Z,1.63
2023-04-05T14:02:45.909Z,1.60
2023-04-05T14:03:48.334Z,1.70
2023-04-05T14:04:50.398Z,1.83
2023-04-05T14:05:54.673Z,1.80
2023-04-05T14:06:58.101Z,1.93
2023-04-05T14:07:59.917Z,1.90
2023-04-05T14:09:01.782Z,1.93
2023-04-05T14:10:04.152Z,1.90
2023-04-05T14:11:07.687Z,2.20
2023-04-05T14:12:10.351Z,1.70
2023-04-05T14:13:13.253Z,1.77
2023-04-05T14:14:15.540Z,1.60
2023-04-05T14:15:17.485Z,1.20
2023-04-05T14:16:21.420Z,1.47
2023-04-05T14:17:23.401Z,1.83
2023-04-05T14:18:25.470Z,2.03
2023-04-05T14:19:27.429Z,1.77
2023-04-05T14:20:29.540Z,1.87
2023-04-05T14:21:31.799Z,1.57
2023-04-05T14:22:33.881Z,1.33
2023-04-05T14:23:36.396Z,1.10
2023-04-05T14:24:38.287Z,1.40
2023-04-05T14:25:40.449Z,1.33
2023-04-05T14:26:46.633Z,1.50